Piedmont Triad International Airport
KGSO : now visible

Airfield :











YOU CAN JOIN US ON...

 
LOGIN :

Register | Disclaimer

   EN    FR    IT 

 









Legend :    VFR   Marginal VFR   IFR   Intensive IFR   Very Intensive IFR
Visi :
Ceiling :
>= 8 km
>= 3000ft
5 to 8 km
1000 to 3000 ft
1500m to 5 km
500 to 1000 ft
800 to 1500m
200 to 500 ft
< 800m
< 200 ft
Symbols :   Thunderstorms  Fog  Heavy snow  Heavy precipitations  Wind > 20 kt






- Airport Elevation : 925 ft
- IATA code : GSO


KGSO - Piedmont Triad International

CURRENT METAR :
  • 141854Z 00000KT 10SM SCT035 BKN055 BKN130 BKN250 27/23 A2997 RMK AO2 RAE08 SLP136 P0001 T02670228

EXPIRED METARs :
  • 141754Z 00000KT 6SM -RA BR FEW019 SCT034 BKN065 BKN140 BKN250 24/22 A2999 RMK AO2 SLP144 P0007 60013 T02440222 10250 20228 58011
  • 141654Z 09006KT 10SM -RA SCT017 SCT050 BKN075 OVC250 25/22 A3001 RMK AO2 SLP149 P0003 T02500222

TAF KGSO
Valid from the 14 at 18:00 until the 15 at 18:00 UTC


141740Z 1418/1518 11008KT P6SM VCSH SCT050 BKN070
TEMPO 1419/1423 VRB15G25KT 2SM -TSRA BKN035CB
FM150700 08003KT 5SM -SHRA BKN004 OVC015
FM151300 06004KT 6SM BR SCT004 BKN008 OVC015
FM151600 06005KT P6SM VCSH BKN035
KZTL FIR / North America



MET'MAP, your aeronautical weather chart ! - Copyright ORBIFLY December 2007 - Disclaimer

ORBIFLY MET'MAP TEAM :

Programming & Development : Alexandra Zaïnal
Concept & original design : Baudouin d'Aumeries
Assistance for programming : Marc-Olivier Méhu
Technical & hardware support : Manuel Goepfert

Contact : metmap@orbifly.com




SOURCES & CREDITS :

   NOAA       Earth
Advisory